ADDS METAR Data INFO
IDs: Format: Raw Decoded Include TAF

Data at: 1246 UTC 19 Oct 2017

KBIV 191153Z AUTO 29006KT 10SM CLR 14/06 A3006 RMK AO2 SLP180 T01440061 10156 20144 53015
KBIV 191053Z AUTO 27008KT 10SM CLR 16/09 A3004 RMK AO2 SLP170 T01560094
KBIV 190953Z AUTO 25013KT 10SM CLR 16/11 A3003 RMK AO2 SLP166 T01560111
KBIV 190853Z AUTO 25013KT 10SM CLR 16/11 A3002 RMK AO2 SLP163 T01560106 55001
KBIV 190753Z AUTO 24015G22KT 10SM CLR 16/10 A3001 RMK AO2 SLP161 T01560100
KBIV 190653Z AUTO 22012KT 10SM CLR 15/09 A3001 RMK AO2 SLP162 T01500094
KBIV 190553Z AUTO 22015KT 10SM CLR 16/09 A3002 RMK AO2 SLP165 T01560089 10172 20144 58009
KBIV 190453Z AUTO 21013G21KT 10SM CLR 16/07 A3004 RMK AO2 SLP170 T01560072 402060083
KBIV 190353Z AUTO 21015G24KT 10SM CLR 17/06 A3005 RMK AO2 PK WND 20026/0337 SLP176 T01670061
KBIV 190253Z AUTO 20011G20KT 10SM CLR 16/06 A3005 RMK AO2 SLP174 T01560056 53003
KBIV 190153Z AUTO 20010KT 10SM CLR 15/05 A3004 RMK AO2 SLP174 T01500050
KBIV 190053Z AUTO 18008KT 10SM CLR 14/05 A3004 RMK AO2 SLPNO T01440050
KBIV 182353Z AUTO 19006KT 10SM CLR 14/05 A3004 RMK AO2 SLP154 T01440050 10206 20144 55004
KBIV 182253Z AUTO 19008KT 10SM CLR 17/04 A3003 RMK AO2 SLP172 T01720044
KBIV 182153Z AUTO 20012KT 10SM CLR 19/04 A3004 RMK AO2 SLP174 T01940044
KBIV 182053Z AUTO 20012G21KT 10SM CLR 20/04 A3005 RMK AO2 SLP177 T02000039 58020
KBIV 181953Z AUTO 19014G21KT 10SM CLR 21/06 A3008 RMK AO2 SLP185 T02060056
KBIV 181853Z AUTO 19016G21KT 10SM CLR 20/06 A3010 RMK AO2 SLP193 T02000061
KBIV 181753Z AUTO 21013G21KT 10SM CLR 20/06 A3011 RMK AO2 SLP196 T02000056 10200 20089 58021
KBIV 181653Z AUTO 22014G22KT 10SM CLR 18/06 A3015 RMK AO2 SLP210 T01830056
KBIV 181553Z AUTO 21016KT 10SM CLR 17/06 A3016 RMK AO2 SLP213 T01720061
KBIV 181453Z AUTO 20010KT 10SM CLR 15/07 A3018 RMK AO2 SLP218 T01500072 50002
KBIV 181353Z AUTO 20011KT 10SM CLR 12/06 A3018 RMK AO2 SLP221 T01170061
KBIV 181253Z AUTO 19008KT 10SM CLR 09/05 A3018 RMK AO2 SLP221 T00940050
KBIV 181153Z AUTO 19008KT 10SM CLR 09/04 A3017 RMK AO2 SLP218 T00890044 10139 20083 50001
KBIV 181053Z AUTO 19007KT 10SM CLR 09/05 A3017 RMK AO2 SLP220 T00890050
KBIV 180953Z AUTO 19005KT 10SM CLR 09/05 A3017 RMK AO2 SLP218 T00890050
KBIV 180853Z AUTO 19006KT 10SM CLR 09/06 A3017 RMK AO2 SLP216 T00890056 53001
KBIV 180753Z AUTO 19007KT 10SM CLR 10/06 A3016 RMK AO2 SLP215 T01000056
KBIV 180653Z AUTO 22007KT 10SM CLR 13/07 A3016 RMK AO2 SLP212 T01280072
KBIV 180553Z AUTO 20008KT 10SM CLR 14/08 A3016 RMK AO2 SLP213 T01390078 10172 20139 53002
KBIV 180453Z AUTO 21010KT 10SM CLR 15/07 A3016 RMK AO2 SLP211 T01500072 401890061
KBIV 180353Z AUTO 22013KT 10SM CLR 16/06 A3016 RMK AO2 SLP211 T01610061
KBIV 180253Z AUTO 22011KT 10SM CLR 16/06 A3016 RMK AO2 SLP212 T01610056 53012
KBIV 180153Z AUTO 21007KT 10SM CLR 16/07 A3015 RMK AO2 SLP209 T01610072
KBIV 180053Z AUTO 23013KT 10SM CLR 17/07 A3013 RMK AO2 SLP203 T01720067